createdAt,value
2022-09-14T00:01:36.194Z,15.50
2022-09-14T00:04:06.765Z,15.50
2022-09-14T00:06:34.995Z,15.50
2022-09-14T00:09:03.799Z,15.40
2022-09-14T00:11:33.380Z,15.40
2022-09-14T00:14:03.637Z,15.40
2022-09-14T00:16:33.848Z,15.50
2022-09-14T00:19:06.086Z,15.50
2022-09-14T00:21:35.718Z,15.50
2022-09-14T00:24:04.541Z,15.50
2022-09-14T00:26:32.449Z,15.50
2022-09-14T00:29:04.525Z,15.50
2022-09-14T00:31:33.727Z,15.50
2022-09-14T00:34:02.646Z,15.40
2022-09-14T00:36:31.848Z,15.40
2022-09-14T00:39:00.687Z,15.40
2022-09-14T00:41:32.885Z,15.40
2022-09-14T00:44:04.914Z,15.50
2022-09-14T00:46:36.902Z,15.50
2022-09-14T00:49:07.664Z,15.50
2022-09-14T00:51:38.491Z,15.50
2022-09-14T00:54:07.921Z,15.40
2022-09-14T00:56:36.184Z,15.40
2022-09-14T00:59:11.840Z,15.40
2022-09-14T01:01:40.024Z,15.40
2022-09-14T01:04:08.063Z,15.30
2022-09-14T01:06:41.971Z,15.30
2022-09-14T01:09:21.991Z,15.30
2022-09-14T01:12:02.797Z,15.20
2022-09-14T01:14:39.069Z,15.20
2022-09-14T01:17:13.242Z,15.20
2022-09-14T01:19:59.933Z,15.20
2022-09-14T01:22:38.094Z,15.10
2022-09-14T01:25:19.216Z,15.10
2022-09-14T01:28:00.981Z,15.20
2022-09-14T01:30:36.628Z,15.20
2022-09-14T01:33:11.558Z,15.20
2022-09-14T01:35:46.207Z,15.10
2022-09-14T01:38:23.700Z,15.10
2022-09-14T01:40:53.252Z,15.10
2022-09-14T01:43:27.721Z,15.20
2022-09-14T01:46:01.375Z,15.20
2022-09-14T01:48:38.684Z,15.20
2022-09-14T01:51:16.079Z,15.30
2022-09-14T01:53:49.297Z,15.30
2022-09-14T01:56:21.536Z,15.30
2022-09-14T01:58:56.071Z,15.40
2022-09-14T02:01:29.573Z,15.40
2022-09-14T02:04:02.678Z,15.50
2022-09-14T02:06:38.843Z,15.50
2022-09-14T02:09:10.131Z,15.50
2022-09-14T02:21:01.704Z,15.50
2022-09-14T02:23:39.648Z,15.50
2022-09-14T02:26:36.548Z,15.40
2022-09-14T02:29:36.683Z,15.50
2022-09-14T02:32:29.222Z,15.50
2022-09-14T02:35:50.305Z,15.40
2022-09-14T02:38:31.232Z,15.40
2022-09-14T02:41:12.580Z,15.40
2022-09-14T02:44:31.947Z,15.40
2022-09-14T02:47:33.895Z,15.40
2022-09-14T03:18:22.067Z,15.30
2022-09-14T03:20:51.496Z,15.30
2022-09-14T03:23:33.673Z,15.20
2022-09-14T03:26:36.807Z,15.20
2022-09-14T03:36:14.359Z,15.20
2022-09-14T03:38:51.049Z,15.30
2022-09-14T03:41:19.777Z,15.20
2022-09-14T03:57:57.189Z,15.20
2022-09-14T04:03:52.922Z,15.30
2022-09-14T04:33:54.462Z,15.50
2022-09-14T04:36:57.301Z,15.50
2022-09-14T05:00:10.618Z,15.50
2022-09-14T05:05:50.983Z,15.60
2022-09-14T05:20:27.698Z,15.50
2022-09-14T05:24:15.030Z,15.50
2022-09-14T05:31:33.655Z,15.60
2022-09-14T06:30:52.781Z,15.70
2022-09-14T06:33:51.950Z,15.70
2022-09-14T06:37:27.101Z,15.80
2022-09-14T06:40:23.558Z,15.90
2022-09-14T07:01:19.923Z,16.00
2022-09-14T07:03:48.800Z,16.10
2022-09-14T07:06:21.134Z,16.10
2022-09-14T07:08:51.287Z,16.10
2022-09-14T07:11:21.640Z,16.20
2022-09-14T07:13:51.536Z,16.20
2022-09-14T07:16:19.872Z,16.30
2022-09-14T07:18:48.385Z,16.30
2022-09-14T07:21:19.513Z,16.40
2022-09-14T07:23:49.273Z,16.40
2022-09-14T07:26:20.469Z,16.30
2022-09-14T07:28:50.515Z,16.30
2022-09-14T07:31:23.255Z,16.30
2022-09-14T07:33:55.463Z,16.30
2022-09-14T07:36:29.562Z,16.40
2022-09-14T07:39:00.720Z,16.50
2022-09-14T07:41:30.935Z,16.50
2022-09-14T07:44:01.381Z,16.60
2022-09-14T07:46:34.320Z,16.70
2022-09-14T07:49:03.344Z,16.80
2022-09-14T07:51:34.612Z,16.80
2022-09-14T07:54:02.619Z,16.80
2022-09-14T07:56:30.858Z,16.90
2022-09-14T07:59:23.900Z,16.90
2022-09-14T08:01:50.302Z,16.90
2022-09-14T08:04:18.883Z,16.90
2022-09-14T08:06:49.050Z,16.90
2022-09-14T08:09:16.864Z,16.90
2022-09-14T08:11:44.724Z,16.90
2022-09-14T08:14:15.965Z,17.00
2022-09-14T08:16:43.818Z,17.00
2022-09-14T08:19:16.483Z,17.10
2022-09-14T08:21:47.592Z,17.10
2022-09-14T08:24:19.137Z,17.20
2022-09-14T08:26:47.589Z,17.20
2022-09-14T08:29:16.639Z,17.20
2022-09-14T08:31:45.613Z,17.20
2022-09-14T08:34:15.952Z,17.20
2022-09-14T08:36:53.361Z,17.10
2022-09-14T08:39:22.788Z,17.10
2022-09-14T08:41:54.318Z,17.10
2022-09-14T08:44:28.029Z,17.20
2022-09-14T08:47:00.805Z,17.10
2022-09-14T08:49:47.518Z,17.20
2022-09-14T08:52:23.231Z,17.20
2022-09-14T08:54:57.769Z,17.30
2022-09-14T08:57:32.926Z,17.30
2022-09-14T09:00:09.410Z,17.30
2022-09-14T09:02:54.112Z,17.30
2022-09-14T09:05:34.509Z,17.30
2022-09-14T09:08:09.012Z,17.40
2022-09-14T09:10:40.421Z,17.40
2022-09-14T09:13:12.088Z,17.40
2022-09-14T09:15:48.544Z,17.50
2022-09-14T09:18:24.230Z,17.50
2022-09-14T09:20:57.415Z,17.50
2022-09-14T09:23:37.433Z,17.50
2022-09-14T09:26:32.297Z,17.50
2022-09-14T09:29:41.229Z,17.50
2022-09-14T09:33:02.032Z,17.50
2022-09-14T10:01:56.190Z,17.50
2022-09-14T10:05:04.108Z,17.50
2022-09-14T10:07:53.033Z,17.50
2022-09-14T10:18:24.216Z,17.50
2022-09-14T10:24:40.681Z,17.50
2022-09-14T10:27:54.837Z,17.50
2022-09-14T10:30:49.711Z,17.60
2022-09-14T10:39:39.083Z,17.70
2022-09-14T11:13:55.027Z,18.20
2022-09-14T11:16:47.906Z,18.20
2022-09-14T11:19:25.916Z,18.10
2022-09-14T11:22:06.700Z,18.20
2022-09-14T11:24:46.106Z,18.40
2022-09-14T11:30:55.801Z,18.80
2022-09-14T11:33:31.658Z,18.90
2022-09-14T11:36:11.572Z,18.90
2022-09-14T11:39:01.369Z,19.00
2022-09-14T11:41:44.402Z,19.00
2022-09-14T11:44:16.879Z,19.00
2022-09-14T11:46:57.604Z,18.90
2022-09-14T11:49:39.699Z,18.90
2022-09-14T11:52:15.979Z,18.90
2022-09-14T11:54:46.934Z,18.90
2022-09-14T11:57:18.542Z,18.90
2022-09-14T11:59:53.009Z,18.80
2022-09-14T12:03:15.526Z,18.80
2022-09-14T12:05:45.630Z,18.80
2022-09-14T12:08:40.410Z,18.70
2022-09-14T12:11:35.691Z,18.70
2022-09-14T12:17:28.974Z,18.60
2022-09-14T12:20:20.348Z,18.60
2022-09-14T12:22:51.483Z,18.60
2022-09-14T12:25:29.964Z,18.70
2022-09-14T12:27:59.940Z,18.70
2022-09-14T12:31:08.058Z,18.80
2022-09-14T12:34:00.752Z,18.80
2022-09-14T12:37:11.283Z,18.80
2022-09-14T12:39:40.035Z,18.90
2022-09-14T12:42:32.521Z,18.90
2022-09-14T12:45:39.041Z,18.90
2022-09-14T12:48:09.267Z,18.90
2022-09-14T12:50:42.249Z,19.00
2022-09-14T12:53:24.891Z,19.00
2022-09-14T12:55:59.238Z,19.10
2022-09-14T12:58:53.029Z,19.30
2022-09-14T13:01:32.312Z,19.50
2022-09-14T13:04:08.461Z,19.60
2022-09-14T13:06:46.349Z,19.60
2022-09-14T13:09:22.887Z,19.30
2022-09-14T13:11:58.407Z,19.20
2022-09-14T13:14:33.929Z,19.10
2022-09-14T13:17:04.221Z,18.90
2022-09-14T13:19:35.013Z,18.90
2022-09-14T13:22:19.478Z,18.80
2022-09-14T13:24:51.428Z,18.80
2022-09-14T13:27:30.697Z,18.80
2022-09-14T13:30:03.055Z,18.90
2022-09-14T13:32:32.155Z,18.90
2022-09-14T13:35:00.117Z,18.90
2022-09-14T13:37:28.245Z,18.90
2022-09-14T13:39:59.926Z,18.90
2022-09-14T13:42:28.128Z,19.00
2022-09-14T13:44:56.255Z,19.00
2022-09-14T13:47:25.978Z,19.00
2022-09-14T13:49:55.982Z,19.00
2022-09-14T13:53:00.760Z,19.00
2022-09-14T13:55:30.280Z,19.10
2022-09-14T13:58:24.713Z,19.20
2022-09-14T14:01:03.414Z,19.30
2022-09-14T14:03:37.596Z,19.30
2022-09-14T14:06:25.511Z,19.40
2022-09-14T14:08:57.308Z,19.40
2022-09-14T14:11:32.873Z,19.40
2022-09-14T14:14:12.873Z,19.30
2022-09-14T14:16:42.528Z,19.30
2022-09-14T14:19:28.977Z,19.30
2022-09-14T14:22:19.641Z,19.30
2022-09-14T14:25:12.334Z,19.30
2022-09-14T14:27:47.331Z,19.40
2022-09-14T14:30:18.422Z,19.50
2022-09-14T14:32:51.087Z,19.50
2022-09-14T14:35:22.559Z,19.60
2022-09-14T14:37:51.369Z,19.60
2022-09-14T14:40:20.483Z,19.50
2022-09-14T14:42:50.936Z,19.40
2022-09-14T14:45:21.934Z,19.30
2022-09-14T14:47:51.066Z,19.30
2022-09-14T14:50:21.944Z,19.30
2022-09-14T14:52:52.176Z,19.40
2022-09-14T14:55:21.054Z,19.30
2022-09-14T14:57:54.268Z,19.40
2022-09-14T15:00:30.359Z,19.30
2022-09-14T15:02:59.799Z,19.30
2022-09-14T15:05:28.020Z,19.10
2022-09-14T15:08:15.685Z,19.10
2022-09-14T15:10:43.783Z,19.10
2022-09-14T15:13:14.240Z,19.20
2022-09-14T15:15:43.146Z,19.10
2022-09-14T15:18:31.389Z,19.10
2022-09-14T15:21:00.435Z,19.00
2022-09-14T15:23:32.585Z,19.00
2022-09-14T15:26:00.958Z,19.00
2022-09-14T15:28:35.857Z,19.00
2022-09-14T15:31:07.571Z,18.90
2022-09-14T15:33:36.335Z,18.90
2022-09-14T15:36:04.380Z,18.90
2022-09-14T15:38:36.475Z,19.00
2022-09-14T15:41:13.696Z,19.00
2022-09-14T15:43:49.929Z,19.00
2022-09-14T15:46:25.904Z,19.00
2022-09-14T15:48:57.870Z,19.00
2022-09-14T15:51:35.962Z,19.00
2022-09-14T15:54:06.576Z,19.00
2022-09-14T15:56:36.782Z,19.00
2022-09-14T15:59:15.332Z,19.00
2022-09-14T16:01:55.327Z,19.00
2022-09-14T16:04:38.060Z,19.00
2022-09-14T16:07:13.160Z,18.90
2022-09-14T16:09:47.927Z,18.90
2022-09-14T16:12:15.996Z,18.90
2022-09-14T16:14:47.446Z,18.80
2022-09-14T16:17:16.535Z,18.80
2022-09-14T16:19:48.026Z,18.70
2022-09-14T16:23:14.239Z,18.70
2022-09-14T16:29:21.115Z,18.60
2022-09-14T16:32:10.417Z,18.60
2022-09-14T16:35:10.932Z,18.60
2022-09-14T16:43:57.002Z,18.60
2022-09-14T16:46:29.619Z,18.60
2022-09-14T16:49:01.377Z,18.60
2022-09-14T16:51:36.757Z,18.60
2022-09-14T16:54:05.914Z,18.60
2022-09-14T16:56:38.234Z,18.60
2022-09-14T16:59:07.422Z,18.50
2022-09-14T17:01:45.352Z,18.40
2022-09-14T17:04:16.258Z,18.40
2022-09-14T17:07:01.686Z,18.30
2022-09-14T17:09:35.368Z,18.30
2022-09-14T17:12:04.630Z,18.30
2022-09-14T17:14:34.071Z,18.30
2022-09-14T17:17:11.175Z,18.20
2022-09-14T17:20:07.449Z,18.20
2022-09-14T17:22:35.315Z,18.10
2022-09-14T17:25:03.239Z,18.10
2022-09-14T17:27:31.657Z,18.10
2022-09-14T17:30:00.542Z,18.00
2022-09-14T17:32:28.434Z,18.00
2022-09-14T17:35:02.767Z,18.00
2022-09-14T17:37:31.034Z,18.00
2022-09-14T17:39:58.891Z,18.00
2022-09-14T17:42:26.735Z,18.00
2022-09-14T17:44:54.548Z,18.00
2022-09-14T17:47:22.443Z,18.00
2022-09-14T17:49:54.369Z,17.90
2022-09-14T17:52:25.342Z,18.00
2022-09-14T17:54:56.975Z,18.00
2022-09-14T17:57:25.178Z,18.00
2022-09-14T17:59:53.060Z,17.90
2022-09-14T18:02:23.021Z,17.90
2022-09-14T18:04:56.532Z,17.90
2022-09-14T18:07:25.778Z,17.90
2022-09-14T18:09:58.044Z,17.90
2022-09-14T18:12:26.997Z,17.90
2022-09-14T18:14:58.827Z,17.90
2022-09-14T18:17:27.760Z,17.90
2022-09-14T18:19:58.403Z,17.90
2022-09-14T18:22:30.014Z,17.80
2022-09-14T18:24:57.852Z,17.80
2022-09-14T18:27:26.742Z,17.80
2022-09-14T18:29:54.653Z,17.80
2022-09-14T18:32:24.420Z,17.90
2022-09-14T18:35:03.062Z,17.90
2022-09-14T18:37:32.348Z,17.90
2022-09-14T18:40:23.571Z,17.90
2022-09-14T18:45:36.483Z,17.90
2022-09-14T18:48:06.847Z,17.90
2022-09-14T18:50:35.703Z,17.90
2022-09-14T18:53:17.276Z,17.90
2022-09-14T18:55:45.156Z,17.90
2022-09-14T18:58:12.963Z,17.90
2022-09-14T19:00:54.708Z,17.90
2022-09-14T19:03:27.719Z,17.90
2022-09-14T19:05:56.531Z,17.90
2022-09-14T19:08:31.730Z,17.90
2022-09-14T19:14:07.286Z,17.90
2022-09-14T19:19:24.500Z,17.80
2022-09-14T19:21:52.582Z,17.80
2022-09-14T19:24:51.699Z,17.70
2022-09-14T19:27:20.040Z,17.70
2022-09-14T19:29:53.541Z,17.70
2022-09-14T19:32:43.664Z,17.70
2022-09-14T19:35:15.491Z,17.60
2022-09-14T19:38:10.061Z,17.60
2022-09-14T19:40:53.680Z,17.60
2022-09-14T19:43:21.510Z,17.50
2022-09-14T19:45:53.011Z,17.50
2022-09-14T19:48:20.915Z,17.40
2022-09-14T19:50:58.200Z,17.40
2022-09-14T19:53:26.008Z,17.40
2022-09-14T19:55:58.261Z,17.30
2022-09-14T19:58:29.881Z,17.30
2022-09-14T20:01:01.881Z,17.30
2022-09-14T20:03:50.915Z,17.30
2022-09-14T20:06:23.311Z,17.30
2022-09-14T20:08:54.544Z,17.30
2022-09-14T20:11:27.805Z,17.30
2022-09-14T20:14:00.607Z,17.40
2022-09-14T20:16:30.775Z,17.40
2022-09-14T20:19:00.009Z,17.40
2022-09-14T20:21:29.806Z,17.30
2022-09-14T20:24:17.870Z,17.30
2022-09-14T20:26:48.032Z,17.30
2022-09-14T20:29:17.512Z,17.30
2022-09-14T20:31:46.191Z,17.30
2022-09-14T20:34:17.137Z,17.40
2022-09-14T20:36:49.198Z,17.30
2022-09-14T20:39:19.734Z,17.30
2022-09-14T20:41:57.170Z,17.30
2022-09-14T20:44:26.363Z,17.30
2022-09-14T20:49:55.102Z,17.30
2022-09-14T20:52:23.768Z,17.20
2022-09-14T20:54:51.583Z,17.20
2022-09-14T20:57:20.816Z,17.20
2022-09-14T20:59:48.650Z,17.10
2022-09-14T21:02:34.470Z,17.00
2022-09-14T21:05:02.889Z,17.00
2022-09-14T21:07:34.047Z,16.90
2022-09-14T21:10:09.838Z,16.90
2022-09-14T21:12:44.525Z,16.80
2022-09-14T21:15:12.740Z,16.80
2022-09-14T21:17:44.378Z,16.80
2022-09-14T21:20:12.478Z,16.80
2022-09-14T21:22:52.821Z,16.70
2022-09-14T21:25:20.598Z,16.70
2022-09-14T21:27:49.827Z,16.70
2022-09-14T21:30:20.592Z,16.70
2022-09-14T21:32:51.279Z,16.70
2022-09-14T21:35:20.502Z,16.70
2022-09-14T21:37:51.257Z,16.80
2022-09-14T21:40:22.209Z,16.80
2022-09-14T21:42:51.435Z,16.80
2022-09-14T21:45:19.299Z,16.80
2022-09-14T21:47:49.745Z,16.80
2022-09-14T21:50:32.271Z,16.90
2022-09-14T21:53:00.109Z,16.90
2022-09-14T21:55:46.213Z,17.00
2022-09-14T21:58:26.750Z,16.90
2022-09-14T22:01:00.941Z,17.00
2022-09-14T22:03:39.575Z,17.00
2022-09-14T22:06:09.369Z,17.00
2022-09-14T22:08:38.245Z,17.10
2022-09-14T22:11:12.197Z,17.10
2022-09-14T22:13:44.619Z,17.20
2022-09-14T22:16:14.571Z,17.20
2022-09-14T22:18:48.817Z,17.20
2022-09-14T22:21:17.496Z,17.20
2022-09-14T22:23:52.009Z,17.20
2022-09-14T22:26:20.950Z,17.30
2022-09-14T22:28:51.573Z,17.30
2022-09-14T22:31:31.444Z,17.30
2022-09-14T22:34:01.003Z,17.30
2022-09-14T22:36:29.644Z,17.30
2022-09-14T22:38:59.414Z,17.30
2022-09-14T22:41:33.663Z,17.30
2022-09-14T22:44:05.741Z,17.30
2022-09-14T22:46:35.303Z,17.30
2022-09-14T22:49:08.937Z,17.30
2022-09-14T22:51:36.848Z,17.30
2022-09-14T22:54:05.500Z,17.30
2022-09-14T22:56:37.422Z,17.30
2022-09-14T22:59:10.931Z,17.30
2022-09-14T23:01:40.717Z,17.30
2022-09-14T23:04:10.635Z,17.30
2022-09-14T23:06:51.624Z,17.30
2022-09-14T23:09:24.664Z,17.30
2022-09-14T23:11:53.018Z,17.30
2022-09-14T23:14:55.989Z,17.30
2022-09-14T23:17:27.384Z,17.30
2022-09-14T23:19:55.420Z,17.40
2022-09-14T23:22:25.200Z,17.40
2022-09-14T23:24:54.388Z,17.40
2022-09-14T23:27:25.822Z,17.40
2022-09-14T23:29:55.048Z,17.40
2022-09-14T23:32:22.995Z,17.40
2022-09-14T23:34:50.845Z,17.40
2022-09-14T23:37:19.697Z,17.40
2022-09-14T23:39:47.546Z,17.40
2022-09-14T23:42:15.360Z,17.40
2022-09-14T23:44:43.662Z,17.30
2022-09-14T23:47:18.424Z,17.30
2022-09-14T23:49:46.277Z,17.30
2022-09-14T23:52:14.152Z,17.30
2022-09-14T23:54:42.989Z,17.30
2022-09-14T23:57:11.084Z,17.30
2022-09-14T23:59:42.114Z,17.20
